createdAt,value
2019-05-21T00:00:37.277Z,97757.19
2019-05-21T00:03:08.778Z,97753.42
2019-05-21T00:05:45.126Z,97755.36
2019-05-21T00:08:20.585Z,97755.48
2019-05-21T00:10:52.808Z,97748.77
2019-05-21T00:13:26.224Z,97753.57
2019-05-21T00:16:00.205Z,97748.50
2019-05-21T00:18:35.370Z,97751.50
2019-05-21T00:21:08.945Z,97756.94
2019-05-21T00:23:42.152Z,97754.02
2019-05-21T00:26:17.129Z,97746.59
2019-05-21T00:29:28.759Z,97747.34
2019-05-21T00:32:37.619Z,97754.15
2019-05-21T00:35:45.664Z,97756.03
2019-05-21T00:38:54.140Z,97756.00
2019-05-21T00:41:59.830Z,97760.33
2019-05-21T00:44:39.217Z,97765.94
2019-05-21T00:47:13.516Z,97759.57
2019-05-21T00:49:46.431Z,97762.23
2019-05-21T00:52:18.502Z,97760.33
2019-05-21T00:54:55.327Z,97765.09
2019-05-21T00:57:27.326Z,97761.28
2019-05-21T01:00:01.345Z,97751.35
2019-05-21T01:02:42.426Z,97757.24
2019-05-21T01:05:16.967Z,97758.92
2019-05-21T01:07:48.397Z,97761.35
2019-05-21T01:10:22.351Z,97764.39
2019-05-21T01:12:55.770Z,97767.78
2019-05-21T01:15:27.733Z,97761.44
2019-05-21T01:18:01.799Z,97766.76
2019-05-21T01:20:33.482Z,97763.43
2019-05-21T01:23:07.709Z,97768.01
2019-05-21T01:25:40.510Z,97770.77
2019-05-21T01:28:12.624Z,97767.56
2019-05-21T01:30:45.608Z,97768.84
2019-05-21T01:33:18.453Z,97767.64
2019-05-21T01:35:51.581Z,97772.34
2019-05-21T01:38:23.711Z,97776.52
2019-05-21T01:40:58.690Z,97771.81
2019-05-21T01:43:32.455Z,97772.16
2019-05-21T01:46:06.629Z,97764.02
2019-05-21T01:48:39.656Z,97767.89
2019-05-21T01:51:15.419Z,97765.95
2019-05-21T01:53:49.599Z,97763.64
2019-05-21T01:56:21.644Z,97763.80
2019-05-21T01:58:55.640Z,97765.63
2019-05-21T02:01:29.696Z,97772.20
2019-05-21T02:04:03.897Z,97772.94
2019-05-21T02:06:38.856Z,97769.71
2019-05-21T02:09:13.016Z,97775.33
2019-05-21T02:11:48.555Z,97779.53
2019-05-21T02:14:21.879Z,97784.11
2019-05-21T02:16:54.779Z,97780.45
2019-05-21T02:19:33.158Z,97785.70
2019-05-21T02:22:06.089Z,97778.91
2019-05-21T02:24:42.877Z,97773.02
2019-05-21T02:27:14.751Z,97779.97
2019-05-21T02:29:46.747Z,97771.73
2019-05-21T02:32:20.976Z,97765.31
2019-05-21T02:34:53.997Z,97769.71
2019-05-21T02:37:27.900Z,97773.79
2019-05-21T02:40:13.524Z,97777.11
2019-05-21T02:42:45.061Z,97774.65
2019-05-21T02:45:18.834Z,97776.25
2019-05-21T02:47:50.982Z,97775.46
2019-05-21T02:50:27.364Z,97773.25
2019-05-21T02:52:59.934Z,97771.39
2019-05-21T02:55:33.011Z,97764.88
2019-05-21T02:58:04.289Z,97766.92
2019-05-21T03:00:56.633Z,97760.55
2019-05-21T03:03:30.840Z,97771.27
2019-05-21T03:06:13.970Z,97769.67
2019-05-21T03:08:36.361Z,97763.25
2019-05-21T03:11:09.168Z,97766.09
2019-05-21T03:13:41.979Z,97766.23
2019-05-21T03:16:14.979Z,97763.88
2019-05-21T03:18:48.052Z,97764.41
2019-05-21T03:21:21.377Z,97763.52
2019-05-21T03:23:54.220Z,97623.91
2019-05-21T03:26:28.043Z,97764.48
2019-05-21T03:29:00.224Z,97761.34
2019-05-21T03:31:34.177Z,97758.62
2019-05-21T03:34:06.174Z,97765.70
2019-05-21T03:36:37.339Z,97765.86
2019-05-21T03:39:09.056Z,97767.23
2019-05-21T03:41:43.137Z,97771.02
2019-05-21T03:44:17.246Z,97770.27
2019-05-21T03:46:52.855Z,97774.36
2019-05-21T03:49:25.780Z,97778.31
2019-05-21T03:51:58.154Z,97771.55
2019-05-21T03:54:30.156Z,97776.69
2019-05-21T03:57:02.216Z,97771.71
2019-05-21T03:59:35.286Z,97779.20
2019-05-21T04:02:10.292Z,97773.28
2019-05-21T04:04:41.514Z,97787.59
2019-05-21T04:07:15.483Z,97780.56
2019-05-21T04:09:49.635Z,97780.33
2019-05-21T04:12:21.349Z,97774.43
2019-05-21T04:14:58.482Z,97772.45
2019-05-21T04:17:51.975Z,97780.27
2019-05-21T04:20:25.509Z,97780.69
2019-05-21T04:22:58.412Z,97787.17
2019-05-21T04:25:31.434Z,97791.23
2019-05-21T04:28:04.379Z,97793.23
2019-05-21T04:30:36.511Z,97799.67
2019-05-21T04:33:07.914Z,97793.13
2019-05-21T04:35:40.135Z,97797.98
2019-05-21T04:38:12.396Z,97802.67
2019-05-21T04:40:45.385Z,97809.02
2019-05-21T04:43:18.685Z,97812.44
2019-05-21T04:45:50.391Z,97811.24
2019-05-21T04:48:24.410Z,97817.64
2019-05-21T04:50:56.698Z,97819.70
2019-05-21T04:53:31.843Z,97825.86
2019-05-21T04:56:04.371Z,97829.94
2019-05-21T04:58:36.662Z,97818.64
2019-05-21T05:01:08.981Z,97833.35
2019-05-21T05:03:42.539Z,97828.83
2019-05-21T05:06:16.616Z,97834.45
2019-05-21T05:08:48.518Z,97829.31
2019-05-21T05:11:21.596Z,97831.39
2019-05-21T05:13:54.480Z,97836.79
2019-05-21T05:16:27.807Z,97836.75
2019-05-21T05:19:00.470Z,97839.88
2019-05-21T05:21:33.807Z,97847.77
2019-05-21T05:24:09.155Z,97840.09
2019-05-21T05:26:43.557Z,97832.37
2019-05-21T05:29:16.732Z,97836.22
2019-05-21T05:31:48.781Z,97842.88
2019-05-21T05:34:24.052Z,97845.36
2019-05-21T05:36:56.607Z,97844.23
2019-05-21T05:39:29.367Z,97850.98
2019-05-21T05:42:02.158Z,97845.63
2019-05-21T05:44:35.853Z,97849.98
2019-05-21T05:47:09.286Z,97848.66
2019-05-21T05:49:45.456Z,97846.21
2019-05-21T05:52:21.101Z,97852.39
2019-05-21T05:54:53.639Z,97823.80
2019-05-21T05:57:24.866Z,97857.34
2019-05-21T05:59:56.842Z,97870.20
2019-05-21T06:02:34.773Z,97872.61
2019-05-21T06:05:16.727Z,97863.37
2019-05-21T06:07:59.232Z,97869.19
2019-05-21T06:10:24.897Z,97870.20
2019-05-21T06:12:59.122Z,97883.07
2019-05-21T06:15:33.678Z,97882.84
2019-05-21T06:18:07.096Z,97883.59
2019-05-21T06:20:38.597Z,97886.23
2019-05-21T06:23:12.065Z,97891.05
2019-05-21T06:25:46.140Z,97893.67
2019-05-21T06:28:19.191Z,97893.62
2019-05-21T06:31:26.756Z,97892.63
2019-05-21T06:34:04.775Z,97894.34
2019-05-21T06:36:38.427Z,97898.94
2019-05-21T06:39:10.015Z,97893.94
2019-05-21T06:41:42.127Z,97902.33
2019-05-21T06:44:16.421Z,97902.03
2019-05-21T06:46:49.166Z,97901.97
2019-05-21T06:49:23.425Z,97902.57
2019-05-21T06:51:56.990Z,97901.47
2019-05-21T06:54:28.215Z,97909.69
2019-05-21T06:57:01.030Z,97910.84
2019-05-21T06:59:32.246Z,97904.25
2019-05-21T07:02:07.716Z,97899.29
2019-05-21T07:04:39.239Z,97903.13
2019-05-21T07:07:12.312Z,97904.55
2019-05-21T07:09:47.887Z,97902.98
2019-05-21T07:12:19.269Z,97906.55
2019-05-21T07:14:51.310Z,97912.27
2019-05-21T07:17:25.353Z,97911.72
2019-05-21T07:19:58.173Z,97913.06
2019-05-21T07:22:31.190Z,97905.09
2019-05-21T07:25:17.163Z,97912.35
2019-05-21T07:27:50.357Z,97911.55
2019-05-21T07:30:23.567Z,97909.41
2019-05-21T07:32:57.279Z,97915.59
2019-05-21T07:35:30.668Z,97925.02
2019-05-21T07:38:04.436Z,97367.38
2019-05-21T07:40:37.224Z,97911.64
2019-05-21T07:43:10.536Z,97919.81
2019-05-21T07:45:42.687Z,97916.27
2019-05-21T07:48:16.309Z,97921.24
2019-05-21T07:50:48.458Z,97921.20
2019-05-21T07:53:21.474Z,97924.42
2019-05-21T07:55:54.440Z,97916.55
2019-05-21T07:58:27.488Z,97913.06
2019-05-21T08:01:01.584Z,97920.91
2019-05-21T08:03:35.040Z,97921.58
2019-05-21T08:06:09.609Z,97930.66
2019-05-21T08:08:42.551Z,97928.72
2019-05-21T08:11:15.414Z,97929.28
2019-05-21T08:13:49.453Z,97941.64
2019-05-21T08:16:23.370Z,97930.27
2019-05-21T08:18:57.316Z,97936.52
2019-05-21T08:21:30.428Z,97937.63
2019-05-21T08:24:02.543Z,97940.78
2019-05-21T08:26:38.261Z,97943.92
2019-05-21T08:29:09.701Z,97942.11
2019-05-21T08:31:42.420Z,97938.66
2019-05-21T08:34:16.427Z,97954.80
2019-05-21T08:36:49.516Z,97965.10
2019-05-21T08:39:28.982Z,97964.95
2019-05-21T08:42:00.498Z,97960.14
2019-05-21T08:44:32.578Z,97968.88
2019-05-21T08:47:05.870Z,97973.67
2019-05-21T08:49:38.969Z,97976.59
2019-05-21T08:52:10.342Z,97977.13
2019-05-21T08:54:51.017Z,97997.45
2019-05-21T08:57:26.007Z,97992.09
2019-05-21T08:59:58.885Z,97995.45
2019-05-21T09:02:38.683Z,97999.08
2019-05-21T09:05:16.120Z,98014.22
2019-05-21T09:07:53.376Z,98008.11
2019-05-21T09:10:26.039Z,98017.06
2019-05-21T09:12:58.754Z,98019.86
2019-05-21T09:15:30.818Z,98018.36
2019-05-21T09:18:03.806Z,98017.91
2019-05-21T09:20:37.873Z,98025.98
2019-05-21T09:23:09.473Z,98013.45
2019-05-21T09:25:42.798Z,98014.56
2019-05-21T09:28:15.873Z,98011.06
2019-05-21T09:30:48.250Z,98013.73
2019-05-21T09:33:21.816Z,98024.69
2019-05-21T09:35:54.785Z,98025.47
2019-05-21T09:38:29.676Z,98026.68
2019-05-21T09:41:03.920Z,98031.77
2019-05-21T09:43:36.808Z,98042.17
2019-05-21T09:46:08.826Z,98029.30
2019-05-21T09:48:44.769Z,98025.63
2019-05-21T09:51:20.860Z,98031.95
2019-05-21T09:53:54.002Z,98024.63
2019-05-21T09:56:35.626Z,98031.75
2019-05-21T09:59:35.167Z,98038.32
2019-05-21T10:02:11.408Z,97900.43
2019-05-21T10:04:43.260Z,98041.59
2019-05-21T10:07:16.116Z,98030.31
2019-05-21T10:09:48.181Z,98028.88
2019-05-21T10:12:22.039Z,98039.50
2019-05-21T10:14:55.025Z,98029.73
2019-05-21T10:17:27.992Z,98041.18
2019-05-21T10:20:01.001Z,98037.65
2019-05-21T10:22:43.573Z,98047.25
2019-05-21T10:25:16.811Z,98039.59
2019-05-21T10:27:48.278Z,98040.75
2019-05-21T10:30:28.273Z,98041.76
2019-05-21T10:33:02.419Z,98043.38
2019-05-21T10:35:34.849Z,98041.13
2019-05-21T10:38:07.218Z,98053.12
2019-05-21T10:40:40.221Z,98051.89
2019-05-21T10:43:13.305Z,98041.47
2019-05-21T10:45:47.298Z,98059.33
2019-05-21T10:48:20.807Z,98046.91
2019-05-21T10:50:54.217Z,98050.75
2019-05-21T10:53:29.795Z,98050.52
2019-05-21T10:56:01.246Z,98039.09
2019-05-21T10:58:34.224Z,98047.95
2019-05-21T11:01:19.408Z,98050.91
2019-05-21T11:04:10.013Z,98055.19
2019-05-21T11:06:45.842Z,98053.05
2019-05-21T11:09:22.748Z,98048.08
2019-05-21T11:11:55.255Z,98050.91
2019-05-21T11:14:30.518Z,98050.91
2019-05-21T11:17:08.007Z,98045.45
2019-05-21T11:19:39.236Z,98053.91
2019-05-21T11:22:14.313Z,98065.05
2019-05-21T11:24:52.045Z,97942.43
2019-05-21T11:27:25.409Z,98054.22
2019-05-21T11:29:59.018Z,98040.90
2019-05-21T11:32:33.189Z,98057.30
2019-05-21T11:35:18.594Z,98061.02
2019-05-21T11:37:52.428Z,98055.19
2019-05-21T11:40:26.609Z,98067.23
2019-05-21T11:43:01.272Z,98062.55
2019-05-21T11:45:34.392Z,98073.34
2019-05-21T11:48:07.548Z,98075.63
2019-05-21T11:50:41.308Z,98083.58
2019-05-21T11:53:15.208Z,98074.33
2019-05-21T11:55:49.493Z,98072.83
2019-05-21T11:58:21.660Z,98084.05
2019-05-21T12:00:57.002Z,98070.19
2019-05-21T12:03:28.406Z,98066.97
2019-05-21T12:05:59.896Z,98067.11
2019-05-21T12:08:32.046Z,98065.97
2019-05-21T12:11:05.530Z,98070.86
2019-05-21T12:13:37.582Z,98071.38
2019-05-21T12:16:09.884Z,98057.63
2019-05-21T12:18:43.560Z,98063.17
2019-05-21T12:21:18.572Z,98070.59
2019-05-21T12:23:52.704Z,98068.57
2019-05-21T12:26:27.613Z,98051.80
2019-05-21T12:29:01.675Z,98055.27
2019-05-21T12:31:34.579Z,98052.80
2019-05-21T12:34:07.745Z,98054.92
2019-05-21T12:36:41.388Z,98056.17
2019-05-21T12:39:16.857Z,98065.19
2019-05-21T12:41:48.983Z,98049.39
2019-05-21T12:44:27.434Z,98031.77
2019-05-21T12:47:02.474Z,98062.14
2019-05-21T12:49:37.592Z,98055.78
2019-05-21T12:52:09.822Z,98043.48
2019-05-21T12:54:42.846Z,98051.13
2019-05-21T12:57:14.662Z,98050.44
2019-05-21T12:59:48.663Z,98047.44
2019-05-21T13:02:22.562Z,98043.06
2019-05-21T13:04:54.936Z,98053.56
2019-05-21T13:07:30.009Z,98046.52
2019-05-21T13:10:15.169Z,98051.12
2019-05-21T13:12:50.801Z,98037.20
2019-05-21T13:15:27.173Z,97907.92
2019-05-21T13:17:58.818Z,98050.02
2019-05-21T13:20:34.625Z,98038.61
2019-05-21T13:23:09.560Z,98034.95
2019-05-21T13:25:43.020Z,98039.53
2019-05-21T13:28:18.276Z,98027.80
2019-05-21T13:30:56.036Z,98047.70
2019-05-21T13:33:29.301Z,98043.91
2019-05-21T13:36:03.971Z,98028.23
2019-05-21T13:38:36.985Z,98049.09
2019-05-21T13:41:08.588Z,98050.77
2019-05-21T13:43:41.646Z,98050.16
2019-05-21T13:46:15.233Z,98047.63
2019-05-21T13:48:49.463Z,98037.09
2019-05-21T13:51:24.775Z,98059.39
2019-05-21T13:53:58.625Z,98068.43
2019-05-21T13:56:32.698Z,98062.55
2019-05-21T13:59:08.034Z,98074.37
2019-05-21T14:01:42.921Z,98045.74
2019-05-21T14:04:17.418Z,98057.55
2019-05-21T14:06:51.793Z,98069.66
2019-05-21T14:09:23.049Z,98086.72
2019-05-21T14:11:58.308Z,98085.31
2019-05-21T14:14:30.314Z,98085.17
2019-05-21T14:17:04.417Z,98087.75
2019-05-21T14:19:36.347Z,98096.00
2019-05-21T14:22:10.445Z,98071.66
2019-05-21T14:24:42.548Z,98077.67
2019-05-21T14:27:14.429Z,98104.67
2019-05-21T14:29:48.021Z,98108.05
2019-05-21T14:32:23.767Z,98088.53
2019-05-21T14:35:01.464Z,98112.89
2019-05-21T14:37:30.400Z,98078.61
2019-05-21T14:40:30.335Z,98076.68
2019-05-21T14:43:00.082Z,98082.20
2019-05-21T14:45:29.963Z,98084.31
2019-05-21T14:48:05.246Z,98089.41
2019-05-21T14:50:37.569Z,98087.03
2019-05-21T14:53:09.817Z,98079.62
2019-05-21T14:55:45.082Z,98079.77
2019-05-21T14:58:16.382Z,98069.51
2019-05-21T15:00:49.154Z,98069.47
2019-05-21T15:03:25.162Z,97914.51
2019-05-21T15:05:56.515Z,98079.31
2019-05-21T15:08:28.686Z,98083.30
2019-05-21T15:11:03.324Z,98072.73
2019-05-21T15:13:37.724Z,98085.08
2019-05-21T15:16:09.981Z,98072.89
2019-05-21T15:18:52.454Z,98080.42
2019-05-21T15:21:34.141Z,98090.70
2019-05-21T15:24:07.620Z,97947.98
2019-05-21T15:26:42.488Z,98075.61
2019-05-21T15:29:25.825Z,98069.07
2019-05-21T15:31:59.994Z,98075.44
2019-05-21T15:34:35.800Z,98078.66
2019-05-21T15:37:07.801Z,98082.05
2019-05-21T15:39:41.441Z,98092.86
2019-05-21T15:42:13.583Z,98060.63
2019-05-21T15:44:49.593Z,98060.83
2019-05-21T15:47:25.130Z,98069.44
2019-05-21T15:49:58.468Z,98081.77
2019-05-21T15:52:30.858Z,98075.23
2019-05-21T15:55:06.716Z,98063.47
2019-05-21T15:57:44.285Z,98072.46
2019-05-21T16:00:20.165Z,98071.01
2019-05-21T16:02:52.624Z,98080.27
2019-05-21T16:05:27.146Z,98082.08
2019-05-21T16:07:59.034Z,98094.45
2019-05-21T16:10:36.744Z,98107.70
2019-05-21T16:13:08.598Z,98112.88
2019-05-21T16:15:46.671Z,98099.55
2019-05-21T16:18:20.187Z,98097.14
2019-05-21T16:20:52.699Z,98104.23
2019-05-21T16:23:25.709Z,98105.94
2019-05-21T16:25:58.909Z,98115.88
2019-05-21T16:28:31.667Z,98127.64
2019-05-21T16:31:05.611Z,98116.57
2019-05-21T16:33:39.050Z,98116.57
2019-05-21T16:36:10.384Z,98116.59
2019-05-21T16:38:44.177Z,98137.22
2019-05-21T16:41:15.717Z,98126.69
2019-05-21T16:43:50.602Z,98141.44
2019-05-21T16:46:22.961Z,98132.50
2019-05-21T16:48:55.951Z,98129.25
2019-05-21T16:51:31.607Z,98133.55
2019-05-21T16:54:04.852Z,98125.61
2019-05-21T16:56:38.245Z,98108.52
2019-05-21T16:59:10.047Z,98120.78
2019-05-21T17:01:44.585Z,98111.51
2019-05-21T17:04:15.884Z,98100.34
2019-05-21T17:06:50.890Z,98095.47
2019-05-21T17:09:28.122Z,98079.47
2019-05-21T17:12:00.286Z,98099.26
2019-05-21T17:14:33.211Z,98065.96
2019-05-21T17:17:07.473Z,98109.95
2019-05-21T17:19:40.120Z,98103.44
2019-05-21T17:22:13.356Z,98077.25
2019-05-21T17:24:46.131Z,98084.11
2019-05-21T17:27:21.582Z,98087.99
2019-05-21T17:29:55.992Z,98103.05
2019-05-21T17:32:30.224Z,98100.66
2019-05-21T17:35:13.095Z,98099.95
2019-05-21T17:37:44.403Z,98101.04
2019-05-21T17:40:29.722Z,98098.67
2019-05-21T17:43:03.011Z,98095.79
2019-05-21T17:45:35.142Z,98090.72
2019-05-21T17:48:07.506Z,98095.95
2019-05-21T17:50:44.956Z,98115.61
2019-05-21T17:53:17.846Z,98119.73
2019-05-21T17:56:00.898Z,98124.22
2019-05-21T17:58:34.304Z,98112.75
2019-05-21T18:01:10.133Z,98110.96
2019-05-21T18:03:44.186Z,98120.71
2019-05-21T18:06:20.271Z,98132.41
2019-05-21T18:08:54.262Z,98138.44
2019-05-21T18:11:30.030Z,98133.50
2019-05-21T18:14:04.206Z,98127.22
2019-05-21T18:16:38.643Z,98122.77
2019-05-21T18:19:09.973Z,98089.05
2019-05-21T18:21:43.490Z,98123.63
2019-05-21T18:24:16.705Z,98115.93
2019-05-21T18:26:49.444Z,98119.41
2019-05-21T18:29:22.412Z,98110.87
2019-05-21T18:31:55.405Z,98125.80
2019-05-21T18:34:28.812Z,98112.92
2019-05-21T18:37:06.435Z,98106.64
2019-05-21T18:39:39.679Z,98117.02
2019-05-21T18:42:21.676Z,98120.01
2019-05-21T18:44:47.490Z,98125.30
2019-05-21T18:47:21.672Z,98151.80
2019-05-21T18:49:55.228Z,98138.20
2019-05-21T18:52:28.446Z,98153.12
2019-05-21T18:55:12.799Z,98156.50
2019-05-21T18:57:46.804Z,98152.19
2019-05-21T19:00:23.794Z,98154.93
2019-05-21T19:02:57.554Z,98151.97
2019-05-21T19:05:28.787Z,98151.59
2019-05-21T19:08:03.199Z,98173.75
2019-05-21T19:10:36.625Z,98169.90
2019-05-21T19:13:09.003Z,98175.68
2019-05-21T19:15:40.220Z,98172.06
2019-05-21T19:18:13.653Z,98188.20
2019-05-21T19:20:50.086Z,98185.80
2019-05-21T19:23:22.638Z,98173.98
2019-05-21T19:25:56.387Z,98181.36
2019-05-21T19:28:29.441Z,98180.14
2019-05-21T19:31:03.553Z,98196.63
2019-05-21T19:33:39.303Z,98198.45
2019-05-21T19:36:12.193Z,98205.43
2019-05-21T19:38:48.457Z,98192.66
2019-05-21T19:41:22.573Z,98211.13
2019-05-21T19:43:56.735Z,98120.72
2019-05-21T19:46:28.574Z,98216.05
2019-05-21T19:49:02.774Z,98222.94
2019-05-21T19:51:36.242Z,98223.30
2019-05-21T19:54:09.670Z,98222.57
2019-05-21T19:56:45.539Z,98229.54
2019-05-21T19:59:22.591Z,98230.86
2019-05-21T20:01:53.787Z,98225.91
2019-05-21T20:04:40.342Z,98215.66
2019-05-21T20:07:16.111Z,98224.67
2019-05-21T20:09:53.087Z,98235.29
2019-05-21T20:12:47.208Z,98227.19
2019-05-21T20:15:22.642Z,97803.48
2019-05-21T20:18:07.076Z,98239.00
2019-05-21T20:20:37.969Z,98229.01
2019-05-21T20:23:13.889Z,98240.44
2019-05-21T20:25:56.437Z,98219.38
2019-05-21T20:28:24.265Z,98233.70
2019-05-21T20:30:59.422Z,98243.48
2019-05-21T20:33:32.347Z,98228.77
2019-05-21T20:36:06.410Z,98238.41
2019-05-21T20:38:40.146Z,98238.41
2019-05-21T20:41:22.966Z,98245.40
2019-05-21T20:43:59.637Z,98226.99
2019-05-21T20:46:36.064Z,98242.52
2019-05-21T20:49:08.384Z,98239.74
2019-05-21T20:51:44.233Z,98250.23
2019-05-21T20:54:18.474Z,98264.34
2019-05-21T20:56:51.986Z,98254.81
2019-05-21T20:59:23.425Z,98256.27
2019-05-21T21:01:58.334Z,98253.17
2019-05-21T21:04:31.283Z,98262.47
2019-05-21T21:07:05.229Z,98238.36
2019-05-21T21:09:39.147Z,98242.09
2019-05-21T21:12:11.809Z,98235.36
2019-05-21T21:14:48.707Z,98240.05
2019-05-21T21:17:23.288Z,98240.76
2019-05-21T21:19:59.171Z,98253.28
2019-05-21T21:22:42.530Z,98259.09
2019-05-21T21:25:21.932Z,98248.84
2019-05-21T21:27:54.868Z,98247.77
2019-05-21T21:30:26.640Z,98245.48
2019-05-21T21:33:04.549Z,98254.50
2019-05-21T21:35:38.371Z,98254.98
2019-05-21T21:38:13.681Z,98256.44
2019-05-21T21:40:47.746Z,98253.17
2019-05-21T21:43:22.483Z,98254.94
2019-05-21T21:45:54.768Z,98243.36
2019-05-21T21:48:27.654Z,98251.53
2019-05-21T21:51:02.643Z,98256.48
2019-05-21T21:53:36.064Z,98242.52
2019-05-21T21:56:10.811Z,98254.55
2019-05-21T21:58:44.071Z,98243.34
2019-05-21T22:01:46.150Z,98250.95
2019-05-21T22:04:25.976Z,98249.86
2019-05-21T22:06:59.396Z,98262.63
2019-05-21T22:09:34.927Z,98261.69
2019-05-21T22:12:10.336Z,98259.38
2019-05-21T22:14:51.643Z,98250.35
2019-05-21T22:17:18.198Z,98253.83
2019-05-21T22:19:53.265Z,98262.36
2019-05-21T22:22:28.104Z,98258.86
2019-05-21T22:24:59.432Z,98252.12
2019-05-21T22:27:42.808Z,98267.30
2019-05-21T22:30:19.104Z,98253.92
2019-05-21T22:32:50.485Z,98264.02
2019-05-21T22:35:22.583Z,98251.60
2019-05-21T22:37:55.583Z,98252.09
2019-05-21T22:40:29.478Z,98254.06
2019-05-21T22:43:02.873Z,98282.06
2019-05-21T22:45:37.398Z,98257.53
2019-05-21T22:48:16.720Z,98255.83
2019-05-21T22:50:50.753Z,98271.83
2019-05-21T22:53:32.747Z,98269.40
2019-05-21T22:56:06.183Z,98270.36
2019-05-21T22:58:41.635Z,98268.68
2019-05-21T23:01:17.427Z,98276.02
2019-05-21T23:03:49.658Z,98276.59
2019-05-21T23:06:24.854Z,98263.71
2019-05-21T23:08:58.733Z,98265.53
2019-05-21T23:11:30.194Z,98253.72
2019-05-21T23:14:01.624Z,98255.66
2019-05-21T23:16:33.983Z,98236.76
2019-05-21T23:19:08.878Z,98222.33
2019-05-21T23:21:41.383Z,98239.52
2019-05-21T23:24:16.892Z,98236.55
2019-05-21T23:26:51.346Z,98228.92
2019-05-21T23:29:24.195Z,98225.81
2019-05-21T23:31:58.454Z,98224.02
2019-05-21T23:34:31.436Z,98212.57
2019-05-21T23:37:09.195Z,98223.88
2019-05-21T23:39:45.808Z,98226.64
2019-05-21T23:42:29.452Z,98220.38
2019-05-21T23:45:01.063Z,98224.73
2019-05-21T23:47:45.877Z,98238.69
2019-05-21T23:50:20.619Z,98245.67
2019-05-21T23:52:53.930Z,98244.81
2019-05-21T23:55:25.650Z,98240.87
2019-05-21T23:58:00.791Z,98243.05
